Time,TemperatureF,DewpointF,PressureIn,WindDirection,WindDirectionDegrees,WindSpeedMPH,WindSpeedGustMPH,Humidity,HourlyPrecipIn,Conditions,Clouds,dailyrainin,SoftwareType,DateUTC
2013-01-14 00:03:00,28.0,26.0,30.20,West,270,0.0,0.0,92,0.00,CLR,,0.00,WeatherDisplay:10.37,2013-01-14 08:03:00,
2013-01-14 00:08:00,28.2,26.2,30.20,West,270,0.0,0.0,92,0.00,CLR,,0.00,WeatherDisplay:10.37,2013-01-14 08:08:00,
2013-01-14 00:14:00,28.2,26.2,30.20,West,270,0.0,0.0,92,0.00,CLR,,0.00,WeatherDisplay:10.37,2013-01-14 08:14:00,
2013-01-14 00:19:00,28.2,26.2,30.20,West,270,0.0,0.0,92,0.00,CLR,,0.00,WeatherDisplay:10.37,2013-01-14 08:19:00,
2013-01-14 00:24:00,28.2,26.2,30.20,West,270,0.0,0.0,92,0.00,CLR,,0.00,WeatherDisplay:10.37,2013-01-14 08:24:00,
2013-01-14 00:29:00,28.2,26.2,30.19,West,270,0.0,0.0,92,0.00,CLR,,0.00,WeatherDisplay:10.37,2013-01-14 08:29:00,
2013-01-14 00:34:00,28.2,26.2,30.20,West,270,0.0,0.0,92,0.00,CLR,,0.00,WeatherDisplay:10.37,2013-01-14 08:34:00,
2013-01-14 00:40:00,28.2,26.2,30.20,West,270,0.0,0.0,92,0.00,CLR,,0.00,WeatherDisplay:10.37,2013-01-14 08:40:00,
2013-01-14 00:45:00,28.6,26.8,30.20,West,270,0.0,0.0,93,0.00,CLR,,0.00,WeatherDisplay:10.37,2013-01-14 08:45:00,
2013-01-14 00:50:00,28.6,26.8,30.20,West,270,0.0,0.0,93,0.00,CLR,,0.00,WeatherDisplay:10.37,2013-01-14 08:50:00,
2013-01-14 00:56:00,28.6,26.8,30.20,West,270,0.0,0.0,93,0.00,CLR,,0.00,WeatherDisplay:10.37,2013-01-14 08:56:00,
2013-01-14 01:01:00,28.6,26.8,30.20,West,270,0.0,0.0,93,0.00,CLR,,0.00,WeatherDisplay:10.37,2013-01-14 09:01:00,
2013-01-14 01:06:00,28.6,26.8,30.20,West,270,0.0,0.0,93,0.00,CLR,,0.00,WeatherDisplay:10.37,2013-01-14 09:06:00,
2013-01-14 01:11:00,28.6,26.8,30.20,West,270,0.0,0.0,93,0.00,CLR,,0.00,WeatherDisplay:10.37,2013-01-14 09:11:00,
2013-01-14 01:16:00,28.6,26.8,30.20,West,270,0.0,0.0,93,0.00,CLR,,0.00,WeatherDisplay:10.37,2013-01-14 09:16:00,
2013-01-14 01:21:00,28.6,26.8,30.21,West,270,0.0,0.0,93,0.00,CLR,,0.00,WeatherDisplay:10.37,2013-01-14 09:21:00,
2013-01-14 01:26:00,28.8,27.0,30.21,West,270,0.0,0.0,93,0.00,CLR,,0.00,WeatherDisplay:10.37,2013-01-14 09:26:00,
2013-01-14 01:31:00,28.8,27.0,30.21,West,270,0.0,0.0,93,0.00,CLR,,0.00,WeatherDisplay:10.37,2013-01-14 09:31:00,
2013-01-14 01:36:00,28.8,27.0,30.21,West,270,0.0,0.0,93,0.00,CLR,,0.00,WeatherDisplay:10.37,2013-01-14 09:36:00,
2013-01-14 01:41:00,28.8,27.0,30.21,West,270,0.0,0.0,93,0.00,CLR,,0.00,WeatherDisplay:10.37,2013-01-14 09:41:00,
2013-01-14 01:46:00,28.9,27.2,30.20,West,270,0.0,0.0,93,0.00,CLR,,0.00,WeatherDisplay:10.37,2013-01-14 09:46:00,
2013-01-14 01:51:00,28.9,27.2,30.21,West,270,0.0,0.0,93,0.00,CLR,,0.00,WeatherDisplay:10.37,2013-01-14 09:51:00,
2013-01-14 01:56:00,28.9,27.2,30.21,West,270,0.0,0.0,93,0.00,CLR,,0.00,WeatherDisplay:10.37,2013-01-14 09:56:00,
2013-01-14 02:01:00,28.9,27.2,30.21,West,270,0.0,0.0,93,0.00,CLR,,0.00,WeatherDisplay:10.37,2013-01-14 10:01:00,
2013-01-14 02:06:00,28.9,27.2,30.22,West,270,0.0,0.0,93,0.00,CLR,,0.00,WeatherDisplay:10.37,2013-01-14 10:06:00,
2013-01-14 02:11:00,28.9,27.2,30.22,West,270,0.0,0.0,93,0.00,CLR,,0.00,WeatherDisplay:10.37,2013-01-14 10:11:00,
2013-01-14 02:16:00,28.9,27.2,30.21,West,270,0.0,0.0,93,0.00,CLR,,0.00,WeatherDisplay:10.37,2013-01-14 10:16:00,
2013-01-14 02:21:00,29.1,27.3,30.21,West,270,0.0,0.0,93,0.00,CLR,,0.00,WeatherDisplay:10.37,2013-01-14 10:21:00,
2013-01-14 02:26:00,29.1,27.3,30.21,West,270,0.0,0.0,93,0.00,CLR,,0.00,WeatherDisplay:10.37,2013-01-14 10:26:00,
2013-01-14 02:31:00,29.1,27.3,30.21,West,270,0.0,0.0,93,0.00,CLR,,0.00,WeatherDisplay:10.37,2013-01-14 10:31:00,
2013-01-14 02:36:00,29.1,27.3,30.21,West,270,0.0,0.0,93,0.00,CLR,,0.00,WeatherDisplay:10.37,2013-01-14 10:36:00,
2013-01-14 02:41:00,29.1,27.3,30.21,West,270,0.0,0.0,93,0.00,CLR,,0.00,WeatherDisplay:10.37,2013-01-14 10:41:00,
2013-01-14 02:46:00,29.1,27.3,30.21,West,270,0.0,0.0,93,0.00,CLR,,0.00,WeatherDisplay:10.37,2013-01-14 10:46:00,
2013-01-14 02:51:00,29.1,27.3,30.21,West,270,0.0,0.0,93,0.00,CLR,,0.00,WeatherDisplay:10.37,2013-01-14 10:51:00,
2013-01-14 02:56:00,29.1,27.3,30.21,West,270,0.0,0.0,93,0.00,CLR,,0.00,WeatherDisplay:10.37,2013-01-14 10:56:00,
2013-01-14 03:01:00,29.1,27.3,30.21,West,270,0.0,0.0,93,0.00,CLR,,0.00,WeatherDisplay:10.37,2013-01-14 11:01:00,
2013-01-14 03:06:00,29.1,27.3,30.21,West,270,0.0,0.0,93,0.00,CLR,,0.00,WeatherDisplay:10.37,2013-01-14 11:06:00,
2013-01-14 03:11:00,29.1,27.3,30.22,West,270,0.0,0.0,93,0.00,CLR,,0.00,WeatherDisplay:10.37,2013-01-14 11:11:00,
2013-01-14 03:16:00,29.1,27.3,30.22,West,270,0.0,0.0,93,0.00,CLR,,0.00,WeatherDisplay:10.37,2013-01-14 11:16:00,
2013-01-14 03:21:00,29.3,27.5,30.22,West,270,0.0,0.0,93,0.00,CLR,,0.00,WeatherDisplay:10.37,2013-01-14 11:21:00,
2013-01-14 03:26:00,29.3,27.5,30.22,West,270,0.0,0.0,93,0.00,CLR,,0.00,WeatherDisplay:10.37,2013-01-14 11:26:00,
2013-01-14 03:31:00,29.3,27.5,30.22,West,270,0.0,0.0,93,0.00,CLR,,0.00,WeatherDisplay:10.37,2013-01-14 11:31:00,
2013-01-14 03:36:00,29.3,27.5,30.22,West,270,0.0,0.0,93,0.00,CLR,,0.00,WeatherDisplay:10.37,2013-01-14 11:36:00,
2013-01-14 03:41:00,29.5,27.7,30.22,West,270,0.0,0.0,93,0.00,CLR,,0.00,WeatherDisplay:10.37,2013-01-14 11:41:00,
2013-01-14 03:46:00,29.3,27.5,30.22,West,270,0.0,0.0,93,0.00,CLR,,0.00,WeatherDisplay:10.37,2013-01-14 11:46:00,
2013-01-14 03:51:00,29.5,27.7,30.22,West,270,0.0,0.0,93,0.00,CLR,,0.00,WeatherDisplay:10.37,2013-01-14 11:51:00,
2013-01-14 03:56:00,29.5,27.7,30.22,West,270,0.0,0.0,93,0.00,CLR,,0.00,WeatherDisplay:10.37,2013-01-14 11:56:00,
2013-01-14 04:01:00,29.5,27.7,30.22,West,270,0.0,0.0,93,0.00,CLR,,0.00,WeatherDisplay:10.37,2013-01-14 12:01:00,
2013-01-14 04:06:00,29.5,27.7,30.22,West,270,0.0,0.0,93,0.00,CLR,,0.00,WeatherDisplay:10.37,2013-01-14 12:06:00,
2013-01-14 04:11:00,29.5,27.7,30.21,West,270,0.0,0.0,93,0.00,CLR,,0.00,WeatherDisplay:10.37,2013-01-14 12:11:00,
2013-01-14 04:16:00,29.5,27.7,30.21,West,270,0.0,0.0,93,0.00,CLR,,0.00,WeatherDisplay:10.37,2013-01-14 12:16:00,
2013-01-14 04:21:00,29.5,27.7,30.21,West,270,0.0,0.0,93,0.00,CLR,,0.00,WeatherDisplay:10.37,2013-01-14 12:21:00,
2013-01-14 04:26:00,29.5,27.7,30.21,West,270,0.0,0.0,93,0.00,CLR,,0.00,WeatherDisplay:10.37,2013-01-14 12:26:00,
2013-01-14 04:31:00,29.5,27.7,30.21,West,270,0.0,0.0,93,0.00,CLR,,0.00,WeatherDisplay:10.37,2013-01-14 12:31:00,
2013-01-14 04:36:00,29.5,27.7,30.21,West,270,0.0,0.0,93,0.00,CLR,,0.00,WeatherDisplay:10.37,2013-01-14 12:36:00,
2013-01-14 04:41:00,29.7,27.9,30.20,West,270,0.0,0.0,93,0.00,CLR,,0.00,WeatherDisplay:10.37,2013-01-14 12:41:00,
2013-01-14 04:46:00,29.7,27.9,30.21,West,270,0.0,0.0,93,0.00,CLR,,0.00,WeatherDisplay:10.37,2013-01-14 12:46:00,
2013-01-14 04:51:00,29.7,27.9,30.21,West,270,0.0,0.0,93,0.00,CLR,,0.00,WeatherDisplay:10.37,2013-01-14 12:51:00,
2013-01-14 04:56:00,29.7,27.9,30.21,West,270,0.0,0.0,93,0.00,CLR,,0.00,WeatherDisplay:10.37,2013-01-14 12:56:00,
2013-01-14 05:01:00,29.7,27.9,30.21,West,270,0.0,0.0,93,0.00,CLR,,0.00,WeatherDisplay:10.37,2013-01-14 13:01:00,
2013-01-14 05:06:00,29.7,27.9,30.21,West,270,0.0,0.0,93,0.00,CLR,,0.00,WeatherDisplay:10.37,2013-01-14 13:06:00,
2013-01-14 05:11:00,29.8,28.1,30.21,West,270,0.0,0.0,93,0.00,CLR,,0.00,WeatherDisplay:10.37,2013-01-14 13:11:00,
2013-01-14 05:16:00,29.8,28.1,30.20,West,270,0.0,0.0,93,0.00,CLR,,0.00,WeatherDisplay:10.37,2013-01-14 13:16:00,
2013-01-14 05:21:00,29.8,28.1,30.22,West,270,0.0,0.0,93,0.00,CLR,,0.00,WeatherDisplay:10.37,2013-01-14 13:21:00,
2013-01-14 05:26:00,29.8,28.1,30.21,West,270,0.0,0.0,93,0.00,CLR,,0.00,WeatherDisplay:10.37,2013-01-14 13:26:00,
2013-01-14 05:31:00,29.8,28.1,30.22,West,270,0.0,0.0,93,0.00,CLR,,0.00,WeatherDisplay:10.37,2013-01-14 13:31:00,
2013-01-14 05:36:00,29.8,28.1,30.22,West,270,0.0,0.0,93,0.00,CLR,,0.00,WeatherDisplay:10.37,2013-01-14 13:36:00,
2013-01-14 05:41:00,29.8,28.1,30.21,West,270,0.0,0.0,93,0.00,CLR,,0.00,WeatherDisplay:10.37,2013-01-14 13:41:00,
2013-01-14 05:46:00,29.8,28.1,30.22,West,270,0.0,0.0,93,0.00,CLR,,0.00,WeatherDisplay:10.37,2013-01-14 13:46:00,
2013-01-14 05:51:00,29.8,28.1,30.22,West,270,0.0,0.0,93,0.00,CLR,,0.00,WeatherDisplay:10.37,2013-01-14 13:51:00,
2013-01-14 05:56:00,29.8,28.1,30.22,West,270,0.0,0.0,93,0.00,CLR,,0.00,WeatherDisplay:10.37,2013-01-14 13:56:00,
2013-01-14 06:01:00,30.0,28.2,30.22,West,270,0.0,0.0,93,0.00,CLR,,0.00,WeatherDisplay:10.37,2013-01-14 14:01:00,
2013-01-14 06:06:00,30.0,28.2,30.21,West,270,0.0,0.0,93,0.00,CLR,,0.00,WeatherDisplay:10.37,2013-01-14 14:06:00,
2013-01-14 06:11:00,30.0,28.2,30.21,West,270,0.0,0.0,93,0.00,CLR,,0.00,WeatherDisplay:10.37,2013-01-14 14:11:00,
2013-01-14 06:16:00,30.0,28.2,30.22,West,270,0.0,0.0,93,0.00,CLR,,0.00,WeatherDisplay:10.37,2013-01-14 14:16:00,
2013-01-14 06:21:00,30.0,28.2,30.22,West,270,0.0,0.0,93,0.00,CLR,,0.00,WeatherDisplay:10.37,2013-01-14 14:21:00,
2013-01-14 06:26:00,30.0,28.2,30.22,West,270,0.0,0.0,93,0.00,CLR,,0.00,WeatherDisplay:10.37,2013-01-14 14:26:00,
2013-01-14 06:31:00,30.0,28.2,30.23,West,270,0.0,0.0,93,0.00,CLR,,0.00,WeatherDisplay:10.37,2013-01-14 14:31:00,
2013-01-14 06:37:00,30.0,28.2,30.22,West,270,0.0,0.0,93,0.00,CLR,,0.00,WeatherDisplay:10.37,2013-01-14 14:37:00,
2013-01-14 06:42:00,30.0,28.2,30.21,West,270,0.0,0.0,93,0.00,CLR,,0.00,WeatherDisplay:10.37,2013-01-14 14:42:00,
2013-01-14 06:47:00,30.0,28.2,30.22,West,270,0.0,0.0,93,0.00,CLR,,0.00,WeatherDisplay:10.37,2013-01-14 14:47:00,
2013-01-14 06:52:00,30.0,28.2,30.22,West,270,0.0,0.0,93,0.00,CLR,,0.00,WeatherDisplay:10.37,2013-01-14 14:52:00,
2013-01-14 06:57:00,30.2,28.4,30.21,West,270,0.0,0.0,93,0.00,CLR,,0.00,WeatherDisplay:10.37,2013-01-14 14:57:00,
2013-01-14 07:02:00,30.0,28.2,30.22,West,270,0.0,0.0,93,0.00,CLR,,0.00,WeatherDisplay:10.37,2013-01-14 15:02:00,
2013-01-14 07:07:00,30.2,28.4,30.22,West,270,0.0,0.0,93,0.00,CLR,,0.00,WeatherDisplay:10.37,2013-01-14 15:07:00,
2013-01-14 07:12:00,30.2,28.4,30.22,SSW,202,0.0,0.0,93,0.00,CLR,,0.00,WeatherDisplay:10.37,2013-01-14 15:12:00,
2013-01-14 07:17:00,30.2,28.4,30.22,SSW,202,0.0,0.0,93,0.00,CLR,,0.00,WeatherDisplay:10.37,2013-01-14 15:17:00,
2013-01-14 07:22:00,30.2,28.4,30.22,SSW,202,0.0,0.0,93,0.00,CLR,,0.00,WeatherDisplay:10.37,2013-01-14 15:22:00,
2013-01-14 07:27:00,30.4,28.6,30.22,South,180,0.0,0.0,93,0.00,CLR,,0.00,WeatherDisplay:10.37,2013-01-14 15:27:00,
2013-01-14 07:32:00,30.4,28.6,30.22,South,180,0.0,0.0,93,0.00,CLR,,0.00,WeatherDisplay:10.37,2013-01-14 15:32:00,
2013-01-14 07:37:00,30.4,28.6,30.22,South,180,0.0,0.0,93,0.00,CLR,,0.00,WeatherDisplay:10.37,2013-01-14 15:37:00,
2013-01-14 07:42:00,30.2,28.4,30.23,South,180,0.0,0.0,93,0.00,CLR,,0.00,WeatherDisplay:10.37,2013-01-14 15:42:00,
2013-01-14 07:47:00,30.2,28.4,30.23,South,180,0.0,0.0,93,0.00,CLR,,0.00,WeatherDisplay:10.37,2013-01-14 15:47:00,
2013-01-14 07:52:00,30.2,28.4,30.23,South,180,0.0,0.0,93,0.00,CLR,,0.00,WeatherDisplay:10.37,2013-01-14 15:52:00,
2013-01-14 07:57:00,30.4,28.6,30.23,South,180,0.0,0.0,93,0.00,CLR,,0.00,WeatherDisplay:10.37,2013-01-14 15:57:00,
2013-01-14 08:02:00,30.4,28.6,30.23,South,180,0.0,0.0,93,0.00,CLR,,0.00,WeatherDisplay:10.37,2013-01-14 16:02:00,
2013-01-14 08:07:00,30.4,28.6,30.22,South,180,0.0,0.0,93,0.00,CLR,,0.00,WeatherDisplay:10.37,2013-01-14 16:07:00,
2013-01-14 08:12:00,30.4,28.6,30.23,South,180,0.0,0.0,93,0.00,CLR,,0.00,WeatherDisplay:10.37,2013-01-14 16:12:00,
2013-01-14 08:17:00,30.4,28.3,30.23,South,180,0.0,0.0,92,0.00,CLR,,0.00,WeatherDisplay:10.37,2013-01-14 16:17:00,
2013-01-14 08:22:00,30.6,28.5,30.23,South,180,0.0,0.0,92,0.00,CLR,,0.00,WeatherDisplay:10.37,2013-01-14 16:22:00,
2013-01-14 08:27:00,30.7,28.7,30.23,South,180,0.0,0.0,92,0.00,CLR,,0.00,WeatherDisplay:10.37,2013-01-14 16:27:00,
2013-01-14 08:32:00,30.6,28.5,30.23,South,180,0.0,0.0,92,0.00,CLR,,0.00,WeatherDisplay:10.37,2013-01-14 16:32:00,
2013-01-14 08:37:00,30.7,28.7,30.24,South,180,0.0,0.0,92,0.00,CLR,,0.00,WeatherDisplay:10.37,2013-01-14 16:37:00,
2013-01-14 08:42:00,30.7,28.7,30.24,South,180,0.0,0.0,92,0.00,CLR,,0.00,WeatherDisplay:10.37,2013-01-14 16:42:00,
2013-01-14 08:47:00,30.7,28.7,30.24,South,180,0.0,0.0,92,0.00,CLR,,0.00,WeatherDisplay:10.37,2013-01-14 16:47:00,
2013-01-14 08:52:00,30.9,28.9,30.23,South,180,0.0,0.0,92,0.00,CLR,,0.00,WeatherDisplay:10.37,2013-01-14 16:52:00,
2013-01-14 08:57:00,30.9,28.9,30.23,South,180,0.0,0.0,92,0.00,CLR,,0.00,WeatherDisplay:10.37,2013-01-14 16:57:00,
2013-01-14 09:02:00,30.9,28.9,30.23,South,180,0.0,0.0,92,0.00,CLR,,0.00,WeatherDisplay:10.37,2013-01-14 17:02:00,
2013-01-14 09:07:00,31.3,29.2,30.23,South,180,0.0,0.0,92,0.00,CLR,,0.00,WeatherDisplay:10.37,2013-01-14 17:07:00,
2013-01-14 09:12:00,31.3,29.2,30.23,South,180,0.0,0.0,92,0.00,CLR,,0.00,WeatherDisplay:10.37,2013-01-14 17:12:00,
2013-01-14 09:17:00,31.3,29.0,30.23,South,180,0.0,0.0,91,0.00,CLR,,0.00,WeatherDisplay:10.37,2013-01-14 17:17:00,
2013-01-14 09:22:00,31.6,29.3,30.24,South,180,0.0,0.0,91,0.00,CLR,,0.00,WeatherDisplay:10.37,2013-01-14 17:22:00,
2013-01-14 09:27:00,31.6,29.3,30.24,South,180,0.0,0.0,91,0.00,CLR,,0.00,WeatherDisplay:10.37,2013-01-14 17:27:00,
2013-01-14 09:32:00,31.8,29.5,30.24,South,180,0.0,0.0,91,0.00,CLR,,0.00,WeatherDisplay:10.37,2013-01-14 17:32:00,
2013-01-14 09:37:00,31.8,29.5,30.23,South,180,0.0,0.0,91,0.00,CLR,,0.00,WeatherDisplay:10.37,2013-01-14 17:37:00,
2013-01-14 09:42:00,32.2,29.8,30.23,SSE,158,0.0,0.0,91,0.00,CLR,,0.00,WeatherDisplay:10.37,2013-01-14 17:42:00,
2013-01-14 09:47:00,32.2,29.8,30.24,SSE,158,0.0,0.0,91,0.00,CLR,,0.00,WeatherDisplay:10.37,2013-01-14 17:47:00,
2013-01-14 09:52:00,32.4,30.0,30.23,ESE,112,0.0,0.0,91,0.00,CLR,,0.00,WeatherDisplay:10.37,2013-01-14 17:52:00,
2013-01-14 09:57:00,32.5,30.2,30.23,ESE,112,0.0,0.0,91,0.00,CLR,,0.00,WeatherDisplay:10.37,2013-01-14 17:57:00,
2013-01-14 10:02:00,32.7,30.1,30.23,ESE,112,0.0,0.0,90,0.00,CLR,,0.00,WeatherDisplay:10.37,2013-01-14 18:02:00,
2013-01-14 10:07:00,32.7,30.1,30.24,ESE,112,0.0,0.0,90,0.00,CLR,,0.00,WeatherDisplay:10.37,2013-01-14 18:07:00,
2013-01-14 10:12:00,32.9,30.0,30.24,SE,135,0.0,0.0,89,0.00,CLR,,0.00,WeatherDisplay:10.37,2013-01-14 18:12:00,
2013-01-14 10:17:00,33.1,30.2,30.24,SE,135,0.0,0.0,89,0.00,CLR,,0.00,WeatherDisplay:10.37,2013-01-14 18:17:00,
2013-01-14 10:22:00,33.4,30.5,30.24,SSW,202,0.0,0.0,89,0.00,CLR,,0.00,WeatherDisplay:10.37,2013-01-14 18:22:00,
2013-01-14 10:27:00,33.6,30.4,30.24,SSE,158,0.0,0.0,88,0.00,CLR,,0.00,WeatherDisplay:10.37,2013-01-14 18:27:00,
2013-01-14 10:32:00,33.6,30.4,30.24,SSE,158,0.0,0.0,88,0.00,CLR,,0.00,WeatherDisplay:10.37,2013-01-14 18:32:00,
2013-01-14 10:37:00,33.8,30.6,30.24,SSE,158,0.0,0.0,88,0.00,CLR,,0.00,WeatherDisplay:10.37,2013-01-14 18:37:00,
2013-01-14 10:42:00,34.0,30.8,30.24,SSE,158,0.0,0.0,88,0.00,CLR,,0.00,WeatherDisplay:10.37,2013-01-14 18:42:00,
2013-01-14 10:47:00,34.3,30.9,30.24,SSE,158,0.0,0.0,87,0.00,CLR,,0.00,WeatherDisplay:10.37,2013-01-14 18:47:00,
2013-01-14 10:52:00,34.3,30.9,30.25,SSE,158,1.6,1.6,87,0.00,CLR,,0.00,WeatherDisplay:10.37,2013-01-14 18:52:00,
2013-01-14 10:57:00,34.3,30.6,30.25,East,90,1.3,0.0,86,0.00,CLR,,0.00,WeatherDisplay:10.37,2013-01-14 18:57:00,
2013-01-14 11:02:00,34.3,30.6,30.24,East,90,0.0,0.0,86,0.00,CLR,,0.00,WeatherDisplay:10.37,2013-01-14 19:02:00,
2013-01-14 11:07:00,34.3,30.6,30.24,East,90,0.0,0.0,86,0.00,CLR,,0.00,WeatherDisplay:10.37,2013-01-14 19:07:00,
2013-01-14 11:12:00,34.7,30.9,30.24,East,90,0.0,0.0,86,0.00,CLR,,0.00,WeatherDisplay:10.37,2013-01-14 19:12:00,
2013-01-14 11:17:00,34.7,30.7,30.24,East,90,0.0,0.0,85,0.00,CLR,,0.00,WeatherDisplay:10.37,2013-01-14 19:17:00,
2013-01-14 11:22:00,34.7,30.7,30.24,East,90,0.0,0.0,85,0.00,CLR,,0.00,WeatherDisplay:10.37,2013-01-14 19:22:00,
2013-01-14 11:27:00,34.9,30.8,30.24,East,90,0.0,0.0,85,0.00,CLR,,0.00,WeatherDisplay:10.37,2013-01-14 19:27:00,
2013-01-14 11:32:00,34.9,30.5,30.24,East,90,0.0,0.0,84,0.00,CLR,,0.00,WeatherDisplay:10.37,2013-01-14 19:32:00,
2013-01-14 11:37:00,34.9,30.5,30.23,ESE,112,0.0,0.0,84,0.00,CLR,,0.00,WeatherDisplay:10.37,2013-01-14 19:37:00,
2013-01-14 11:42:00,35.2,30.9,30.23,SE,135,0.0,0.0,84,0.00,CLR,,0.00,WeatherDisplay:10.37,2013-01-14 19:42:00,
2013-01-14 11:47:00,35.4,31.1,30.23,SE,135,0.0,0.0,84,0.00,CLR,,0.00,WeatherDisplay:10.37,2013-01-14 19:47:00,
2013-01-14 11:52:00,35.4,31.1,30.23,SE,135,0.0,0.0,84,0.00,CLR,,0.00,WeatherDisplay:10.37,2013-01-14 19:52:00,
2013-01-14 11:57:00,35.4,30.8,30.23,SE,135,0.0,0.0,83,0.00,CLR,,0.00,WeatherDisplay:10.37,2013-01-14 19:57:00,
2013-01-14 12:02:00,35.6,30.9,30.23,SE,135,0.0,0.0,83,0.00,CLR,,0.00,WeatherDisplay:10.37,2013-01-14 20:02:00,
2013-01-14 12:07:00,35.8,31.1,30.23,SE,135,0.0,0.0,83,0.00,CLR,,0.00,WeatherDisplay:10.37,2013-01-14 20:07:00,
2013-01-14 12:12:00,35.8,31.1,30.24,SE,135,0.0,0.0,83,0.00,CLR,,0.00,WeatherDisplay:10.37,2013-01-14 20:12:00,
2013-01-14 12:17:00,35.8,31.1,30.24,ESE,112,0.0,0.0,83,0.00,CLR,,0.00,WeatherDisplay:10.37,2013-01-14 20:17:00,
2013-01-14 12:22:00,36.0,31.3,30.23,ESE,112,0.0,0.0,83,0.00,CLR,,0.00,WeatherDisplay:10.37,2013-01-14 20:22:00,
2013-01-14 12:27:00,36.1,31.5,30.23,ESE,112,0.0,0.0,83,0.00,CLR,,0.00,WeatherDisplay:10.37,2013-01-14 20:27:00,
2013-01-14 12:32:00,36.3,31.4,30.24,ESE,112,0.0,0.0,82,0.00,CLR,,0.00,WeatherDisplay:10.37,2013-01-14 20:32:00,
2013-01-14 12:37:00,36.3,31.4,30.23,ESE,112,0.0,0.0,82,0.00,CLR,,0.00,WeatherDisplay:10.37,2013-01-14 20:37:00,
2013-01-14 12:42:00,36.3,31.4,30.23,ESE,112,0.0,0.0,82,0.00,CLR,,0.00,WeatherDisplay:10.37,2013-01-14 20:42:00,
2013-01-14 12:47:00,36.3,31.4,30.23,ESE,112,0.0,0.0,82,0.00,CLR,,0.00,WeatherDisplay:10.37,2013-01-14 20:47:00,
2013-01-14 12:52:00,36.5,31.2,30.24,East,90,1.3,1.3,81,0.00,CLR,,0.00,WeatherDisplay:10.37,2013-01-14 20:52:00,
2013-01-14 12:57:00,36.5,31.2,30.23,South,180,0.0,0.0,81,0.00,CLR,,0.00,WeatherDisplay:10.37,2013-01-14 20:57:00,
2013-01-14 13:02:00,36.7,31.4,30.24,South,180,0.0,0.0,81,0.00,CLR,,0.00,WeatherDisplay:10.37,2013-01-14 21:02:00,
2013-01-14 13:07:00,36.7,31.4,30.24,South,180,0.0,0.0,81,0.00,CLR,,0.00,WeatherDisplay:10.37,2013-01-14 21:07:00,
2013-01-14 13:12:00,36.7,31.1,30.23,SE,135,2.3,2.3,80,0.00,CLR,,0.00,WeatherDisplay:10.37,2013-01-14 21:12:00,
2013-01-14 13:17:00,36.7,31.1,30.23,SE,135,0.0,0.0,80,0.00,CLR,,0.00,WeatherDisplay:10.37,2013-01-14 21:17:00,
2013-01-14 13:22:00,36.9,31.3,30.23,SE,135,0.0,0.0,80,0.00,CLR,,0.00,WeatherDisplay:10.37,2013-01-14 21:22:00,
2013-01-14 13:27:00,37.0,31.4,30.23,SE,135,0.0,0.0,80,0.00,CLR,,0.00,WeatherDisplay:10.37,2013-01-14 21:27:00,
2013-01-14 13:32:00,37.0,31.4,30.23,SE,135,0.0,0.0,80,0.00,CLR,,0.00,WeatherDisplay:10.37,2013-01-14 21:32:00,
2013-01-14 13:37:00,37.2,31.6,30.23,SE,135,0.0,0.0,80,0.00,CLR,,0.00,WeatherDisplay:10.37,2013-01-14 21:37:00,
2013-01-14 13:42:00,37.4,31.8,30.23,SE,135,0.0,0.0,80,0.00,CLR,,0.00,WeatherDisplay:10.37,2013-01-14 21:42:00,
2013-01-14 13:47:00,37.6,32.0,30.24,SE,135,0.0,0.0,80,0.00,CLR,,0.00,WeatherDisplay:10.37,2013-01-14 21:47:00,
2013-01-14 13:52:00,37.4,31.8,30.23,SE,135,0.0,0.0,80,0.00,CLR,,0.00,WeatherDisplay:10.37,2013-01-14 21:52:00,
2013-01-14 13:57:00,37.6,31.7,30.23,South,180,0.0,0.0,79,0.00,CLR,,0.00,WeatherDisplay:10.37,2013-01-14 21:57:00,
2013-01-14 14:02:00,37.6,31.7,30.23,South,180,0.0,0.0,79,0.00,CLR,,0.00,WeatherDisplay:10.37,2013-01-14 22:02:00,
2013-01-14 14:07:00,37.6,31.7,30.23,South,180,0.0,0.0,79,0.00,CLR,,0.00,WeatherDisplay:10.37,2013-01-14 22:07:00,
2013-01-14 14:12:00,37.6,31.7,30.24,South,180,0.0,0.0,79,0.00,CLR,,0.00,WeatherDisplay:10.37,2013-01-14 22:12:00,
2013-01-14 14:17:00,37.2,31.3,30.24,South,180,0.0,0.0,79,0.00,CLR,,0.00,WeatherDisplay:10.37,2013-01-14 22:17:00,
2013-01-14 14:22:00,37.2,31.3,30.24,South,180,0.0,0.0,79,0.00,CLR,,0.00,WeatherDisplay:10.37,2013-01-14 22:22:00,
2013-01-14 14:27:00,37.2,31.3,30.23,South,180,0.0,0.0,79,0.00,CLR,,0.00,WeatherDisplay:10.37,2013-01-14 22:27:00,
2013-01-14 14:32:00,37.2,31.3,30.23,South,180,0.0,0.0,79,0.00,CLR,,0.00,WeatherDisplay:10.37,2013-01-14 22:32:00,
2013-01-14 14:37:00,37.2,31.3,30.23,South,180,0.0,0.0,79,0.00,CLR,,0.00,WeatherDisplay:10.37,2013-01-14 22:37:00,
2013-01-14 14:42:00,37.2,31.6,30.24,South,180,0.0,0.0,80,0.00,CLR,,0.00,WeatherDisplay:10.37,2013-01-14 22:42:00,
2013-01-14 14:47:00,37.2,31.6,30.24,South,180,0.0,0.0,80,0.00,CLR,,0.00,WeatherDisplay:10.37,2013-01-14 22:47:00,
2013-01-14 14:53:00,37.2,31.6,30.24,South,180,0.0,0.0,80,0.00,CLR,,0.00,WeatherDisplay:10.37,2013-01-14 22:53:00,
2013-01-14 14:58:00,37.2,31.6,30.24,South,180,0.0,0.0,80,0.00,CLR,,0.00,WeatherDisplay:10.37,2013-01-14 22:58:00,
2013-01-14 15:03:00,37.2,31.3,30.24,South,180,0.0,0.0,79,0.00,CLR,,0.00,WeatherDisplay:10.37,2013-01-14 23:03:00,
2013-01-14 15:08:00,37.2,31.3,30.24,South,180,0.0,0.0,79,0.00,CLR,,0.00,WeatherDisplay:10.37,2013-01-14 23:08:00,
2013-01-14 15:13:00,37.0,31.1,30.24,South,180,0.0,0.0,79,0.00,CLR,,0.00,WeatherDisplay:10.37,2013-01-14 23:13:00,
2013-01-14 15:18:00,37.2,31.3,30.25,South,180,0.0,0.0,79,0.00,CLR,,0.00,WeatherDisplay:10.37,2013-01-14 23:18:00,
2013-01-14 15:23:00,37.0,31.4,30.25,South,180,0.0,0.0,80,0.00,CLR,,0.00,WeatherDisplay:10.37,2013-01-14 23:23:00,
2013-01-14 15:28:00,37.0,31.4,30.25,South,180,0.0,0.0,80,0.00,CLR,,0.00,WeatherDisplay:10.37,2013-01-14 23:28:00,
2013-01-14 15:33:00,37.0,31.4,30.25,South,180,0.0,0.0,80,0.00,CLR,,0.00,WeatherDisplay:10.37,2013-01-14 23:33:00,
2013-01-14 15:38:00,36.7,31.1,30.25,South,180,0.0,0.0,80,0.00,CLR,,0.00,WeatherDisplay:10.37,2013-01-14 23:38:00,
2013-01-14 15:43:00,36.9,31.6,30.25,South,180,0.0,0.0,81,0.00,CLR,,0.00,WeatherDisplay:10.37,2013-01-14 23:43:00,
2013-01-14 15:48:00,36.7,31.4,30.25,South,180,0.0,0.0,81,0.00,CLR,,0.00,WeatherDisplay:10.37,2013-01-14 23:48:00,
2013-01-14 15:53:00,36.7,31.4,30.25,South,180,0.0,0.0,81,0.00,CLR,,0.00,WeatherDisplay:10.37,2013-01-14 23:53:00,
2013-01-14 15:58:00,36.7,31.4,30.24,South,180,0.0,0.0,81,0.00,CLR,,0.00,WeatherDisplay:10.37,2013-01-14 23:58:00,
2013-01-14 16:03:00,36.9,31.6,30.24,South,180,0.0,0.0,81,0.00,CLR,,0.00,WeatherDisplay:10.37,2013-01-15 00:03:00,
2013-01-14 16:08:00,36.9,31.6,30.24,South,180,0.0,0.0,81,0.00,CLR,,0.00,WeatherDisplay:10.37,2013-01-15 00:08:00,
2013-01-14 16:13:00,36.9,31.6,30.24,South,180,0.0,0.0,81,0.00,CLR,,0.00,WeatherDisplay:10.37,2013-01-15 00:13:00,
2013-01-14 16:18:00,36.7,31.4,30.24,South,180,0.0,0.0,81,0.00,CLR,,0.00,WeatherDisplay:10.37,2013-01-15 00:18:00,
2013-01-14 16:23:00,36.7,31.4,30.24,South,180,0.0,0.0,81,0.00,CLR,,0.00,WeatherDisplay:10.37,2013-01-15 00:23:00,
2013-01-14 16:28:00,36.5,31.2,30.24,South,180,0.0,0.0,81,0.00,CLR,,0.00,WeatherDisplay:10.37,2013-01-15 00:28:00,
2013-01-14 16:33:00,36.3,31.0,30.24,South,180,0.0,0.0,81,0.00,CLR,,0.00,WeatherDisplay:10.37,2013-01-15 00:33:00,
2013-01-14 16:38:00,36.0,30.7,30.25,South,180,0.0,0.0,81,0.00,CLR,,0.00,WeatherDisplay:10.37,2013-01-15 00:38:00,
2013-01-14 16:43:00,35.6,30.3,30.24,South,180,0.0,0.0,81,0.00,CLR,,0.00,WeatherDisplay:10.37,2013-01-15 00:43:00,
2013-01-14 16:48:00,35.4,30.2,30.24,South,180,0.0,0.0,81,0.00,CLR,,0.00,WeatherDisplay:10.37,2013-01-15 00:48:00,
2013-01-14 16:53:00,35.2,30.3,30.24,South,180,0.0,0.0,82,0.00,CLR,,0.00,WeatherDisplay:10.37,2013-01-15 00:53:00,
2013-01-14 16:59:00,34.9,29.9,30.25,South,180,0.0,0.0,82,0.00,CLR,,0.00,WeatherDisplay:10.37,2013-01-15 00:59:00,
2013-01-14 17:04:00,34.7,29.8,30.25,South,180,0.0,0.0,82,0.00,CLR,,0.00,WeatherDisplay:10.37,2013-01-15 01:04:00,
2013-01-14 17:09:00,34.3,29.7,30.25,South,180,0.0,0.0,83,0.00,CLR,,0.00,WeatherDisplay:10.37,2013-01-15 01:09:00,
2013-01-14 17:14:00,34.3,29.7,30.26,South,180,0.0,0.0,83,0.00,CLR,,0.00,WeatherDisplay:10.37,2013-01-15 01:14:00,
2013-01-14 17:19:00,34.3,29.7,30.26,South,180,0.0,0.0,83,0.00,CLR,,0.00,WeatherDisplay:10.37,2013-01-15 01:19:00,
2013-01-14 17:24:00,34.3,29.7,30.26,South,180,0.0,0.0,83,0.00,CLR,,0.00,WeatherDisplay:10.37,2013-01-15 01:24:00,
2013-01-14 17:29:00,34.3,30.0,30.26,South,180,0.0,0.0,84,0.00,CLR,,0.00,WeatherDisplay:10.37,2013-01-15 01:29:00,
2013-01-14 17:34:00,34.2,29.8,30.25,South,180,0.0,0.0,84,0.00,CLR,,0.00,WeatherDisplay:10.37,2013-01-15 01:34:00,
2013-01-14 17:39:00,34.2,29.8,30.25,South,180,0.0,0.0,84,0.00,CLR,,0.00,WeatherDisplay:10.37,2013-01-15 01:39:00,
2013-01-14 17:44:00,34.0,29.7,30.25,South,180,0.0,0.0,84,0.00,CLR,,0.00,WeatherDisplay:10.37,2013-01-15 01:44:00,
2013-01-14 17:49:00,34.0,29.7,30.25,South,180,0.0,0.0,84,0.00,CLR,,0.00,WeatherDisplay:10.37,2013-01-15 01:49:00,
2013-01-14 17:54:00,33.8,29.8,30.25,South,180,0.0,0.0,85,0.00,CLR,,0.00,WeatherDisplay:10.37,2013-01-15 01:54:00,
2013-01-14 17:59:00,33.6,29.6,30.25,South,180,0.0,0.0,85,0.00,CLR,,0.00,WeatherDisplay:10.37,2013-01-15 01:59:00,
2013-01-14 18:04:00,33.6,29.6,30.25,South,180,0.0,0.0,85,0.00,CLR,,0.00,WeatherDisplay:10.37,2013-01-15 02:04:00,
2013-01-14 18:09:00,33.6,29.6,30.25,South,180,0.0,0.0,85,0.00,CLR,,0.00,WeatherDisplay:10.37,2013-01-15 02:09:00,
2013-01-14 18:14:00,33.6,29.6,30.25,South,180,0.0,0.0,85,0.00,CLR,,0.00,WeatherDisplay:10.37,2013-01-15 02:14:00,
2013-01-14 18:19:00,33.4,29.4,30.26,South,180,0.0,0.0,85,0.00,CLR,,0.00,WeatherDisplay:10.37,2013-01-15 02:19:00,
2013-01-14 18:24:00,33.3,29.2,30.26,South,180,0.0,0.0,85,0.00,CLR,,0.00,WeatherDisplay:10.37,2013-01-15 02:24:00,
2013-01-14 18:29:00,33.1,29.3,30.25,South,180,0.0,0.0,86,0.00,CLR,,0.00,WeatherDisplay:10.37,2013-01-15 02:29:00,
2013-01-14 18:34:00,32.9,29.2,30.25,South,180,0.0,0.0,86,0.00,CLR,,0.00,WeatherDisplay:10.37,2013-01-15 02:34:00,
2013-01-14 18:39:00,32.7,29.0,30.25,South,180,0.0,0.0,86,0.00,CLR,,0.00,WeatherDisplay:10.37,2013-01-15 02:39:00,
2013-01-14 18:44:00,32.7,29.0,30.26,South,180,0.0,0.0,86,0.00,CLR,,0.00,WeatherDisplay:10.37,2013-01-15 02:44:00,
2013-01-14 18:49:00,32.7,29.3,30.26,South,180,0.0,0.0,87,0.00,CLR,,0.00,WeatherDisplay:10.37,2013-01-15 02:49:00,
2013-01-14 18:54:00,32.5,29.1,30.26,South,180,0.0,0.0,87,0.00,CLR,,0.00,WeatherDisplay:10.37,2013-01-15 02:54:00,
2013-01-14 18:59:00,32.5,29.1,30.26,South,180,0.0,0.0,87,0.00,CLR,,0.00,WeatherDisplay:10.37,2013-01-15 02:59:00,
2013-01-14 19:04:00,32.5,29.1,30.26,South,180,0.0,0.0,87,0.00,CLR,,0.00,WeatherDisplay:10.37,2013-01-15 03:04:00,
2013-01-14 19:09:00,32.5,29.1,30.27,South,180,0.0,0.0,87,0.00,CLR,,0.00,WeatherDisplay:10.37,2013-01-15 03:09:00,
2013-01-14 19:14:00,32.4,28.9,30.27,South,180,0.0,0.0,87,0.00,CLR,,0.00,WeatherDisplay:10.37,2013-01-15 03:14:00,
2013-01-14 19:19:00,32.4,28.9,30.27,South,180,0.0,0.0,87,0.00,CLR,,0.00,WeatherDisplay:10.37,2013-01-15 03:19:00,
2013-01-14 19:24:00,32.4,28.9,30.27,South,180,0.0,0.0,87,0.00,CLR,,0.00,WeatherDisplay:10.37,2013-01-15 03:24:00,
2013-01-14 19:29:00,32.4,28.9,30.27,South,180,0.0,0.0,87,0.00,CLR,,0.00,WeatherDisplay:10.37,2013-01-15 03:29:00,
2013-01-14 19:34:00,32.5,29.4,30.27,South,180,0.0,0.0,88,0.00,CLR,,0.00,WeatherDisplay:10.37,2013-01-15 03:34:00,
2013-01-14 19:39:00,32.4,29.2,30.27,South,180,0.0,0.0,88,0.00,CLR,,0.00,WeatherDisplay:10.37,2013-01-15 03:39:00,
2013-01-14 19:44:00,32.4,29.2,30.28,South,180,0.0,0.0,88,0.00,CLR,,0.00,WeatherDisplay:10.37,2013-01-15 03:44:00,
2013-01-14 19:49:00,32.4,29.2,30.27,South,180,0.0,0.0,88,0.00,CLR,,0.00,WeatherDisplay:10.37,2013-01-15 03:49:00,
2013-01-14 19:54:00,32.4,29.2,30.27,South,180,0.0,0.0,88,0.00,CLR,,0.00,WeatherDisplay:10.37,2013-01-15 03:54:00,
2013-01-14 19:59:00,32.4,29.2,30.27,South,180,0.0,0.0,88,0.00,CLR,,0.00,WeatherDisplay:10.37,2013-01-15 03:59:00,
2013-01-14 20:04:00,32.4,29.2,30.28,South,180,0.0,0.0,88,0.00,CLR,,0.00,WeatherDisplay:10.37,2013-01-15 04:04:00,
2013-01-14 20:09:00,32.4,29.2,30.28,South,180,0.0,0.0,88,0.00,CLR,,0.00,WeatherDisplay:10.37,2013-01-15 04:09:00,
2013-01-14 20:14:00,32.5,29.4,30.28,South,180,0.0,0.0,88,0.00,CLR,,0.00,WeatherDisplay:10.37,2013-01-15 04:14:00,
2013-01-14 20:19:00,32.5,29.4,30.28,South,180,0.0,0.0,88,0.00,CLR,,0.00,WeatherDisplay:10.37,2013-01-15 04:19:00,
2013-01-14 20:24:00,32.5,29.7,30.29,South,180,0.0,0.0,89,0.00,CLR,,0.00,WeatherDisplay:10.37,2013-01-15 04:24:00,
2013-01-14 20:29:00,32.5,29.7,30.29,South,180,0.0,0.0,89,0.00,CLR,,0.00,WeatherDisplay:10.37,2013-01-15 04:29:00,
2013-01-14 20:34:00,32.5,29.7,30.28,South,180,0.0,0.0,89,0.00,CLR,,0.00,WeatherDisplay:10.37,2013-01-15 04:34:00,
2013-01-14 20:39:00,32.5,29.7,30.28,South,180,0.0,0.0,89,0.00,CLR,,0.00,WeatherDisplay:10.37,2013-01-15 04:39:00,
2013-01-14 20:44:00,32.5,29.7,30.28,South,180,0.0,0.0,89,0.00,CLR,,0.00,WeatherDisplay:10.37,2013-01-15 04:44:00,
2013-01-14 20:49:00,32.5,29.7,30.28,South,180,0.0,0.0,89,0.00,CLR,,0.00,WeatherDisplay:10.37,2013-01-15 04:49:00,
2013-01-14 20:54:00,32.5,29.7,30.29,South,180,0.0,0.0,89,0.00,CLR,,0.00,WeatherDisplay:10.37,2013-01-15 04:54:00,
2013-01-14 20:59:00,32.5,29.7,30.29,South,180,0.0,0.0,89,0.00,CLR,,0.00,WeatherDisplay:10.37,2013-01-15 04:59:00,
2013-01-14 21:00:00,32.5,29.7,30.28,South,180,0.0,0.0,89,0.00,CLR,,0.00,WeatherDisplay:10.37,2013-01-15 05:00:00,
2013-01-14 21:01:00,32.5,29.7,30.28,South,180,0.0,0.0,89,0.00,CLR,,0.00,WeatherDisplay:10.37,2013-01-15 05:01:00,
2013-01-14 21:03:00,32.5,29.7,30.29,South,180,0.0,0.0,89,0.00,CLR,,0.00,WeatherDisplay:10.37,2013-01-15 05:03:00,
2013-01-14 21:08:00,32.5,29.7,30.28,South,180,0.0,0.0,89,0.00,CLR,,0.00,WeatherDisplay:10.37,2013-01-15 05:08:00,
2013-01-14 21:09:00,32.5,29.7,30.28,South,180,0.0,0.0,89,0.00,CLR,,0.00,WeatherDisplay:10.37,2013-01-15 05:09:00,
2013-01-14 21:14:00,32.7,29.8,30.28,South,180,0.0,0.0,89,0.00,CLR,,0.00,WeatherDisplay:10.37,2013-01-15 05:14:00,
2013-01-14 21:19:00,32.5,29.7,30.28,South,180,0.0,0.0,89,0.00,CLR,,0.00,WeatherDisplay:10.37,2013-01-15 05:19:00,
2013-01-14 21:24:00,32.5,29.7,30.28,South,180,0.0,0.0,89,0.00,CLR,,0.00,WeatherDisplay:10.37,2013-01-15 05:24:00,
2013-01-14 21:29:00,32.5,29.7,30.28,South,180,0.0,0.0,89,0.00,CLR,,0.00,WeatherDisplay:10.37,2013-01-15 05:29:00,
2013-01-14 21:34:00,32.5,29.7,30.28,South,180,0.0,0.0,89,0.00,CLR,,0.00,WeatherDisplay:10.37,2013-01-15 05:34:00,
2013-01-14 21:39:00,32.5,29.7,30.28,South,180,0.0,0.0,89,0.00,CLR,,0.00,WeatherDisplay:10.37,2013-01-15 05:39:00,
2013-01-14 21:44:00,32.5,29.7,30.28,South,180,0.0,0.0,89,0.00,CLR,,0.00,WeatherDisplay:10.37,2013-01-15 05:44:00,
2013-01-14 21:49:00,32.5,29.7,30.28,South,180,0.0,0.0,89,0.00,CLR,,0.00,WeatherDisplay:10.37,2013-01-15 05:49:00,
2013-01-14 21:54:00,32.5,29.7,30.28,South,180,0.0,0.0,89,0.00,CLR,,0.00,WeatherDisplay:10.37,2013-01-15 05:54:00,
2013-01-14 21:59:00,32.5,29.7,30.28,South,180,0.0,0.0,89,0.00,CLR,,0.00,WeatherDisplay:10.37,2013-01-15 05:59:00,
2013-01-14 22:04:00,32.5,29.7,30.27,South,180,0.0,0.0,89,0.00,CLR,,0.00,WeatherDisplay:10.37,2013-01-15 06:04:00,
2013-01-14 22:09:00,32.5,29.7,30.28,South,180,0.0,0.0,89,0.00,CLR,,0.00,WeatherDisplay:10.37,2013-01-15 06:09:00,
2013-01-14 22:14:00,32.5,29.7,30.28,South,180,0.0,0.0,89,0.00,CLR,,0.00,WeatherDisplay:10.37,2013-01-15 06:14:00,
2013-01-14 22:19:00,32.5,29.9,30.28,South,180,0.0,0.0,90,0.00,CLR,,0.00,WeatherDisplay:10.37,2013-01-15 06:19:00,
2013-01-14 22:24:00,32.5,29.9,30.28,South,180,0.0,0.0,90,0.00,CLR,,0.00,WeatherDisplay:10.37,2013-01-15 06:24:00,
2013-01-14 22:29:00,32.5,29.9,30.29,South,180,0.0,0.0,90,0.00,CLR,,0.00,WeatherDisplay:10.37,2013-01-15 06:29:00,
2013-01-14 22:34:00,32.2,29.6,30.28,South,180,0.0,0.0,90,0.00,CLR,,0.00,WeatherDisplay:10.37,2013-01-15 06:34:00,
2013-01-14 22:39:00,32.2,29.6,30.28,South,180,0.0,0.0,90,0.00,CLR,,0.00,WeatherDisplay:10.37,2013-01-15 06:39:00,
2013-01-14 22:44:00,31.8,29.2,30.28,South,180,0.0,0.0,90,0.00,CLR,,0.00,WeatherDisplay:10.37,2013-01-15 06:44:00,
2013-01-14 22:49:00,31.8,29.2,30.29,South,180,0.0,0.0,90,0.00,CLR,,0.00,WeatherDisplay:10.37,2013-01-15 06:49:00,
2013-01-14 22:54:00,31.8,29.2,30.29,South,180,0.0,0.0,90,0.00,CLR,,0.00,WeatherDisplay:10.37,2013-01-15 06:54:00,
2013-01-14 22:59:00,31.8,29.2,30.29,South,180,0.0,0.0,90,0.00,CLR,,0.00,WeatherDisplay:10.37,2013-01-15 06:59:00,
2013-01-14 23:04:00,31.8,29.2,30.29,South,180,0.0,0.0,90,0.00,CLR,,0.00,WeatherDisplay:10.37,2013-01-15 07:04:00,
2013-01-14 23:09:00,31.8,29.2,30.29,South,180,0.0,0.0,90,0.00,CLR,,0.00,WeatherDisplay:10.37,2013-01-15 07:09:00,
2013-01-14 23:14:00,31.8,29.2,30.29,South,180,0.0,0.0,90,0.00,CLR,,0.00,WeatherDisplay:10.37,2013-01-15 07:14:00,
2013-01-14 23:19:00,31.8,29.2,30.29,South,180,0.0,0.0,90,0.00,CLR,,0.00,WeatherDisplay:10.37,2013-01-15 07:19:00,
2013-01-14 23:24:00,31.8,29.2,30.29,South,180,0.0,0.0,90,0.00,CLR,,0.00,WeatherDisplay:10.37,2013-01-15 07:24:00,
2013-01-14 23:29:00,31.8,29.2,30.29,South,180,0.0,0.0,90,0.00,CLR,,0.00,WeatherDisplay:10.37,2013-01-15 07:29:00,
2013-01-14 23:34:00,31.8,29.2,30.29,South,180,0.0,0.0,90,0.00,CLR,,0.00,WeatherDisplay:10.37,2013-01-15 07:34:00,
2013-01-14 23:39:00,31.8,29.2,30.29,South,180,0.0,0.0,90,0.00,CLR,,0.00,WeatherDisplay:10.37,2013-01-15 07:39:00,
2013-01-14 23:44:00,31.8,29.2,30.29,South,180,0.0,0.0,90,0.00,CLR,,0.00,WeatherDisplay:10.37,2013-01-15 07:44:00,
2013-01-14 23:49:00,31.6,29.0,30.30,South,180,0.0,0.0,90,0.00,CLR,,0.00,WeatherDisplay:10.37,2013-01-15 07:49:00,
2013-01-14 23:54:00,31.6,29.0,30.30,South,180,0.0,0.0,90,0.00,CLR,,0.00,WeatherDisplay:10.37,2013-01-15 07:54:00,
2013-01-14 23:59:00,31.6,29.0,30.30,South,180,0.0,0.0,90,0.00,CLR,,0.00,WeatherDisplay:10.37,2013-01-15 07:59:00,